createdAt,value
2019-05-18T00:00:01.024Z,0.00
2019-05-18T00:03:01.028Z,0.00
2019-05-18T00:06:00.958Z,0.00
2019-05-18T00:09:00.942Z,0.00
2019-05-18T00:12:00.897Z,0.00
2019-05-18T00:15:00.884Z,0.00
2019-05-18T00:18:00.820Z,0.00
2019-05-18T00:21:00.828Z,0.00
2019-05-18T00:24:00.755Z,0.00
2019-05-18T00:27:00.743Z,0.00
2019-05-18T00:30:00.685Z,0.00
2019-05-18T00:33:00.681Z,0.00
2019-05-18T00:36:00.681Z,0.00
2019-05-18T00:39:00.591Z,0.00
2019-05-18T00:42:00.594Z,0.00
2019-05-18T00:45:00.537Z,0.00
2019-05-18T00:48:00.533Z,0.00
2019-05-18T00:51:00.464Z,0.00
2019-05-18T00:54:00.454Z,0.00
2019-05-18T00:57:00.397Z,0.00
2019-05-18T01:00:00.413Z,0.00
2019-05-18T01:03:00.334Z,0.00
2019-05-18T01:06:00.339Z,0.00
2019-05-18T01:09:00.280Z,0.00
2019-05-18T01:12:00.262Z,0.00
2019-05-18T01:15:00.223Z,0.00
2019-05-18T01:18:02.392Z,0.00
2019-05-18T01:21:00.173Z,0.00
2019-05-18T01:24:00.128Z,0.00
2019-05-18T01:27:00.090Z,0.00
2019-05-18T01:30:00.049Z,0.00
2019-05-18T01:33:00.036Z,0.00
2019-05-18T01:36:00.005Z,0.00
2019-05-18T01:38:59.988Z,0.00
2019-05-18T01:41:59.961Z,0.00
2019-05-18T01:44:59.892Z,0.00
2019-05-18T01:48:12.832Z,0.00
2019-05-18T01:51:00.824Z,0.00
2019-05-18T01:53:59.835Z,0.00
2019-05-18T01:56:59.782Z,0.00
2019-05-18T01:59:59.732Z,0.00
2019-05-18T02:02:59.715Z,0.00
2019-05-18T02:05:59.678Z,0.00
2019-05-18T02:08:59.711Z,0.00
2019-05-18T02:12:06.664Z,0.00
2019-05-18T02:14:59.599Z,0.00
2019-05-18T02:17:59.549Z,0.00
2019-05-18T02:20:59.533Z,0.00
2019-05-18T02:23:59.478Z,0.00
2019-05-18T02:26:59.461Z,0.00
2019-05-18T02:29:59.418Z,0.00
2019-05-18T02:32:59.414Z,0.00
2019-05-18T02:35:59.380Z,0.00
2019-05-18T02:38:59.346Z,0.00
2019-05-18T02:41:59.321Z,0.00
2019-05-18T02:44:59.290Z,0.00
2019-05-18T02:47:59.229Z,0.00
2019-05-18T02:50:59.235Z,0.00
2019-05-18T02:53:59.189Z,0.00
2019-05-18T02:56:59.156Z,0.00
2019-05-18T02:59:59.132Z,0.00
2019-05-18T03:02:59.091Z,0.00
2019-05-18T03:05:59.081Z,0.00
2019-05-18T03:08:59.009Z,0.00
2019-05-18T03:11:58.993Z,0.00
2019-05-18T03:14:58.944Z,0.00
2019-05-18T03:17:58.942Z,0.00
2019-05-18T03:20:58.883Z,0.00
2019-05-18T03:23:58.872Z,5.62
2019-05-18T03:26:58.830Z,5.62
2019-05-18T03:29:58.798Z,5.62
2019-05-18T03:32:58.761Z,11.25
2019-05-18T03:35:58.748Z,11.25
2019-05-18T03:38:58.721Z,16.88
2019-05-18T03:41:58.660Z,16.88
2019-05-18T03:44:58.651Z,22.50
2019-05-18T03:47:58.606Z,22.50
2019-05-18T03:50:58.588Z,28.12
2019-05-18T03:53:58.554Z,33.75
2019-05-18T03:56:58.529Z,33.75
2019-05-18T03:59:58.501Z,39.38
2019-05-18T04:02:58.438Z,45.00
2019-05-18T04:05:58.428Z,50.62
2019-05-18T04:08:58.396Z,50.62
2019-05-18T04:11:58.365Z,56.25
2019-05-18T04:14:58.309Z,61.88
2019-05-18T04:17:58.311Z,67.50
2019-05-18T04:20:58.285Z,73.12
2019-05-18T04:23:58.225Z,78.75
2019-05-18T04:26:58.229Z,84.38
2019-05-18T04:29:58.156Z,101.25
2019-05-18T04:32:58.164Z,118.12
2019-05-18T04:35:58.121Z,146.25
2019-05-18T04:38:58.074Z,174.38
2019-05-18T04:41:58.058Z,185.62
2019-05-18T04:44:58.000Z,180.00
2019-05-18T04:47:57.992Z,163.12
2019-05-18T04:50:58.008Z,157.50
2019-05-18T04:53:57.914Z,168.75
2019-05-18T04:56:57.879Z,163.12
2019-05-18T04:59:57.842Z,185.62
2019-05-18T05:02:57.811Z,196.88
2019-05-18T05:05:57.767Z,213.75
2019-05-18T05:08:57.744Z,213.75
2019-05-18T05:11:57.702Z,225.00
2019-05-18T05:14:57.678Z,236.25
2019-05-18T05:17:57.636Z,253.12
2019-05-18T05:20:57.626Z,264.38
2019-05-18T05:23:57.573Z,275.62
2019-05-18T05:26:57.547Z,309.38
2019-05-18T05:29:57.520Z,337.50
2019-05-18T05:32:57.469Z,348.75
2019-05-18T05:35:57.447Z,365.62
2019-05-18T05:38:57.413Z,376.88
2019-05-18T05:41:57.385Z,388.12
2019-05-18T05:44:57.347Z,405.00
2019-05-18T05:47:57.316Z,421.88
2019-05-18T05:50:57.274Z,466.88
2019-05-18T05:53:57.261Z,720.00
2019-05-18T05:56:57.222Z,753.75
2019-05-18T05:59:57.178Z,826.88
2019-05-18T06:02:57.155Z,826.88
2019-05-18T06:05:57.111Z,883.12
2019-05-18T06:08:57.095Z,877.50
2019-05-18T06:11:57.077Z,950.62
2019-05-18T06:14:57.016Z,995.62
2019-05-18T06:17:57.008Z,995.62
2019-05-18T06:20:56.955Z,1051.88
2019-05-18T06:23:56.941Z,1096.88
2019-05-18T06:26:56.893Z,1170.00
2019-05-18T06:29:56.872Z,1170.00
2019-05-18T06:32:56.861Z,1215.00
2019-05-18T06:35:56.796Z,810.00
2019-05-18T06:38:56.769Z,1338.75
2019-05-18T06:41:56.734Z,1350.00
2019-05-18T06:44:56.704Z,1299.38
2019-05-18T06:47:56.659Z,1417.50
2019-05-18T06:51:06.898Z,1496.25
2019-05-18T06:53:57.606Z,1558.12
2019-05-18T06:56:56.569Z,1518.75
2019-05-18T06:59:56.561Z,1636.88
2019-05-18T07:02:56.502Z,1659.38
2019-05-18T07:05:56.487Z,1569.38
2019-05-18T07:08:56.459Z,1614.38
2019-05-18T07:11:56.416Z,1530.00
2019-05-18T07:14:56.386Z,1698.75
2019-05-18T07:17:56.353Z,1760.62
2019-05-18T07:20:56.333Z,1794.38
2019-05-18T07:23:56.282Z,1715.62
2019-05-18T07:26:56.264Z,1558.12
2019-05-18T07:29:56.229Z,1530.00
2019-05-18T07:32:56.187Z,1732.50
2019-05-18T07:35:56.176Z,1693.12
2019-05-18T07:38:56.123Z,1985.62
2019-05-18T07:41:56.102Z,1957.50
2019-05-18T07:44:56.059Z,1918.12
2019-05-18T07:47:56.038Z,1929.38
2019-05-18T07:50:56.012Z,2165.62
2019-05-18T07:53:55.971Z,2351.25
2019-05-18T07:56:55.961Z,2351.25
2019-05-18T07:59:55.908Z,2345.62
2019-05-18T08:02:55.884Z,2418.75
2019-05-18T08:05:55.884Z,2390.62
2019-05-18T08:08:55.819Z,2407.50
2019-05-18T08:12:02.866Z,2441.25
2019-05-18T08:14:55.755Z,2491.88
2019-05-18T08:17:55.746Z,2463.75
2019-05-18T08:20:55.694Z,2413.12
2019-05-18T08:23:55.684Z,2463.75
2019-05-18T08:26:55.631Z,2497.50
2019-05-18T08:29:55.634Z,2565.00
2019-05-18T08:32:55.582Z,2638.12
2019-05-18T08:35:55.572Z,2548.12
2019-05-18T08:38:55.530Z,2688.75
2019-05-18T08:41:55.486Z,2677.50
2019-05-18T08:44:55.483Z,2666.25
2019-05-18T08:47:55.428Z,2660.62
2019-05-18T08:50:55.423Z,2655.00
2019-05-18T08:53:55.370Z,2694.38
2019-05-18T08:56:55.382Z,2778.75
2019-05-18T08:59:55.320Z,2199.38
2019-05-18T09:02:55.317Z,2390.62
2019-05-18T09:05:55.258Z,2300.62
2019-05-18T09:08:55.249Z,2199.38
2019-05-18T09:11:55.211Z,2373.75
2019-05-18T09:14:55.204Z,2334.38
2019-05-18T09:17:55.145Z,2733.75
2019-05-18T09:20:55.137Z,2975.62
2019-05-18T09:23:55.115Z,2497.50
2019-05-18T09:26:55.057Z,2548.12
2019-05-18T09:29:55.043Z,2289.38
2019-05-18T09:32:55.006Z,2559.38
2019-05-18T09:35:54.984Z,2649.38
2019-05-18T09:38:54.965Z,2767.50
2019-05-18T09:41:54.912Z,2626.88
2019-05-18T09:44:54.914Z,2475.00
2019-05-18T09:47:54.861Z,2261.25
2019-05-18T09:50:54.856Z,2728.12
2019-05-18T09:53:54.800Z,2750.62
2019-05-18T09:56:55.485Z,2745.00
2019-05-18T09:59:54.776Z,2666.25
2019-05-18T10:02:54.718Z,2733.75
2019-05-18T10:05:54.716Z,2745.00
2019-05-18T10:08:54.696Z,2716.88
2019-05-18T10:11:54.634Z,2666.25
2019-05-18T10:14:54.631Z,2694.38
2019-05-18T10:17:54.581Z,2840.62
2019-05-18T10:20:54.579Z,2683.12
2019-05-18T10:23:54.530Z,2553.75
2019-05-18T10:26:54.537Z,2846.25
2019-05-18T10:29:54.466Z,2306.25
2019-05-18T10:32:54.463Z,2711.25
2019-05-18T10:35:54.441Z,2705.62
2019-05-18T10:38:54.391Z,2795.62
2019-05-18T10:41:54.381Z,545.62
2019-05-18T10:44:54.410Z,2126.25
2019-05-18T10:47:54.310Z,2525.62
2019-05-18T10:50:54.305Z,2728.12
2019-05-18T10:53:54.254Z,2745.00
2019-05-18T10:56:54.252Z,2840.62
2019-05-18T10:59:54.195Z,2835.00
2019-05-18T11:02:54.189Z,2458.12
2019-05-18T11:05:54.162Z,2401.88
2019-05-18T11:08:54.132Z,2283.75
2019-05-18T11:11:54.102Z,1951.88
2019-05-18T11:14:54.089Z,2570.62
2019-05-18T11:17:54.039Z,2581.88
2019-05-18T11:20:54.005Z,2531.25
2019-05-18T11:23:54.076Z,2632.50
2019-05-18T11:26:53.956Z,2559.38
2019-05-18T11:29:53.980Z,2565.00
2019-05-18T11:32:53.911Z,2531.25
2019-05-18T11:35:53.866Z,2604.38
2019-05-18T11:38:53.882Z,2345.62
2019-05-18T11:41:53.831Z,2458.12
2019-05-18T11:44:53.805Z,2441.25
2019-05-18T11:47:53.757Z,2401.88
2019-05-18T11:50:53.749Z,2221.88
2019-05-18T11:53:58.450Z,517.50
2019-05-18T11:56:53.797Z,2576.25
2019-05-18T11:59:53.675Z,2441.25
2019-05-18T12:02:53.632Z,2143.12
2019-05-18T12:05:53.606Z,2126.25
2019-05-18T12:08:53.593Z,2289.38
2019-05-18T12:11:53.567Z,2283.75
2019-05-18T12:14:53.524Z,2199.38
2019-05-18T12:17:53.488Z,1091.25
2019-05-18T12:20:53.479Z,866.25
2019-05-18T12:23:53.425Z,1254.38
2019-05-18T12:26:53.406Z,1170.00
2019-05-18T12:29:53.372Z,1203.75
2019-05-18T12:32:53.355Z,511.88
2019-05-18T12:35:53.330Z,545.62
2019-05-18T12:38:53.309Z,1254.38
2019-05-18T12:41:53.275Z,1338.75
2019-05-18T12:44:53.227Z,1395.00
2019-05-18T12:47:53.226Z,1473.75
2019-05-18T12:50:53.170Z,1935.00
2019-05-18T12:53:53.177Z,2115.00
2019-05-18T12:56:53.116Z,1665.00
2019-05-18T12:59:53.111Z,1496.25
2019-05-18T13:02:53.070Z,1383.75
2019-05-18T13:05:53.029Z,1344.38
2019-05-18T13:08:53.036Z,1282.50
2019-05-18T13:11:52.977Z,1231.88
2019-05-18T13:14:52.978Z,630.00
2019-05-18T13:17:52.918Z,1170.00
2019-05-18T13:20:52.925Z,1063.12
2019-05-18T13:23:52.867Z,708.75
2019-05-18T13:26:52.865Z,708.75
2019-05-18T13:29:52.806Z,1130.62
2019-05-18T13:32:52.802Z,461.25
2019-05-18T13:35:52.786Z,1085.62
2019-05-18T13:38:52.754Z,1108.12
2019-05-18T13:41:52.693Z,1209.38
2019-05-18T13:44:52.683Z,911.25
2019-05-18T13:47:52.628Z,1029.38
2019-05-18T13:50:52.625Z,1136.25
2019-05-18T13:53:52.569Z,1147.50
2019-05-18T13:56:52.558Z,1141.88
2019-05-18T13:59:52.510Z,1198.12
2019-05-18T14:02:52.512Z,1209.38
2019-05-18T14:05:52.458Z,1350.00
2019-05-18T14:08:52.465Z,1541.25
2019-05-18T14:11:59.558Z,1845.00
2019-05-18T14:14:52.365Z,1333.12
2019-05-18T14:17:52.359Z,1023.75
2019-05-18T14:20:52.306Z,894.38
2019-05-18T14:23:52.299Z,736.88
2019-05-18T14:26:52.249Z,348.75
2019-05-18T14:29:52.263Z,360.00
2019-05-18T14:32:52.194Z,444.38
2019-05-18T14:35:52.192Z,675.00
2019-05-18T14:38:56.828Z,675.00
2019-05-18T14:41:52.152Z,663.75
2019-05-18T14:44:52.095Z,630.00
2019-05-18T14:47:52.040Z,601.88
2019-05-18T14:50:52.029Z,421.88
2019-05-18T14:53:52.029Z,292.50
2019-05-18T14:56:51.950Z,281.25
2019-05-18T14:59:51.929Z,303.75
2019-05-18T15:02:51.892Z,315.00
2019-05-18T15:05:51.901Z,337.50
2019-05-18T15:08:51.836Z,343.12
2019-05-18T15:11:51.950Z,298.12
2019-05-18T15:14:51.790Z,326.25
2019-05-18T15:17:51.736Z,292.50
2019-05-18T15:20:51.732Z,286.88
2019-05-18T15:23:51.676Z,303.75
2019-05-18T15:26:51.663Z,573.75
2019-05-18T15:29:51.608Z,382.50
2019-05-18T15:32:51.607Z,320.62
2019-05-18T15:35:51.549Z,286.88
2019-05-18T15:38:51.546Z,320.62
2019-05-18T15:41:51.514Z,405.00
2019-05-18T15:44:51.454Z,433.12
2019-05-18T15:47:51.466Z,376.88
2019-05-18T15:50:51.390Z,258.75
2019-05-18T15:53:51.385Z,258.75
2019-05-18T15:56:51.327Z,241.88
2019-05-18T15:59:51.330Z,253.12
2019-05-18T16:02:51.265Z,236.25
2019-05-18T16:05:51.260Z,230.62
2019-05-18T16:08:51.211Z,247.50
2019-05-18T16:11:51.178Z,337.50
2019-05-18T16:14:51.173Z,410.62
2019-05-18T16:17:51.114Z,360.00
2019-05-18T16:20:51.098Z,360.00
2019-05-18T16:23:51.067Z,309.38
2019-05-18T16:26:51.013Z,292.50
2019-05-18T16:29:51.017Z,275.62
2019-05-18T16:32:50.993Z,270.00
2019-05-18T16:35:50.953Z,275.62
2019-05-18T16:38:50.921Z,264.38
2019-05-18T16:41:50.862Z,258.75
2019-05-18T16:44:50.861Z,258.75
2019-05-18T16:47:50.797Z,270.00
2019-05-18T16:50:50.775Z,275.62
2019-05-18T16:53:50.733Z,253.12
2019-05-18T16:56:50.726Z,241.88
2019-05-18T16:59:50.696Z,219.38
2019-05-18T17:02:50.688Z,213.75
2019-05-18T17:05:50.649Z,208.12
2019-05-18T17:08:50.588Z,196.88
2019-05-18T17:11:50.558Z,191.25
2019-05-18T17:14:50.515Z,185.62
2019-05-18T17:17:50.526Z,168.75
2019-05-18T17:20:50.465Z,157.50
2019-05-18T17:23:53.541Z,151.88
2019-05-18T17:26:53.161Z,140.62
2019-05-18T17:29:50.362Z,140.62
2019-05-18T17:32:50.338Z,135.00
2019-05-18T17:35:59.874Z,129.38
2019-05-18T17:38:51.290Z,123.75
2019-05-18T17:41:50.240Z,118.12
2019-05-18T17:44:50.211Z,118.12
2019-05-18T17:47:50.192Z,112.50
2019-05-18T17:50:50.131Z,106.88
2019-05-18T17:53:50.144Z,106.88
2019-05-18T17:56:50.074Z,101.25
2019-05-18T17:59:50.053Z,95.62
2019-05-18T18:02:50.040Z,90.00
2019-05-18T18:05:49.995Z,90.00
2019-05-18T18:08:49.972Z,84.38
2019-05-18T18:11:49.910Z,78.75
2019-05-18T18:14:49.904Z,78.75
2019-05-18T18:17:49.844Z,73.12
2019-05-18T18:20:49.829Z,73.12
2019-05-18T18:23:54.532Z,73.12
2019-05-18T18:26:50.748Z,67.50
2019-05-18T18:29:49.753Z,67.50
2019-05-18T18:32:49.682Z,61.88
2019-05-18T18:35:49.695Z,56.25
2019-05-18T18:38:49.645Z,50.62
2019-05-18T18:41:49.601Z,45.00
2019-05-18T18:44:49.573Z,39.38
2019-05-18T18:47:49.541Z,39.38
2019-05-18T18:50:49.515Z,33.75
2019-05-18T18:53:49.461Z,28.12
2019-05-18T18:56:49.450Z,22.50
2019-05-18T18:59:49.402Z,16.88
2019-05-18T19:02:49.395Z,16.88
2019-05-18T19:05:49.330Z,11.25
2019-05-18T19:08:49.329Z,11.25
2019-05-18T19:11:49.263Z,5.62
2019-05-18T19:14:49.266Z,5.62
2019-05-18T19:17:49.239Z,5.62
2019-05-18T19:20:49.176Z,0.00
2019-05-18T19:23:49.171Z,0.00
2019-05-18T19:26:49.145Z,0.00
2019-05-18T19:29:49.072Z,0.00
2019-05-18T19:32:49.087Z,0.00
2019-05-18T19:35:49.014Z,0.00
2019-05-18T19:38:49.031Z,0.00
2019-05-18T19:41:48.996Z,0.00
2019-05-18T19:44:48.929Z,0.00
2019-05-18T19:47:48.901Z,0.00
2019-05-18T19:50:48.873Z,0.00
2019-05-18T19:53:48.851Z,0.00
2019-05-18T19:56:48.797Z,0.00
2019-05-18T19:59:48.763Z,0.00
2019-05-18T20:02:48.729Z,0.00
2019-05-18T20:05:48.694Z,0.00
2019-05-18T20:08:48.733Z,0.00
2019-05-18T20:11:48.632Z,0.00
2019-05-18T20:14:55.647Z,0.00
2019-05-18T20:17:48.573Z,0.00
2019-05-18T20:20:48.543Z,0.00
2019-05-18T20:23:48.524Z,0.00
2019-05-18T20:26:48.458Z,0.00
2019-05-18T20:29:48.509Z,0.00
2019-05-18T20:32:48.394Z,0.00
2019-05-18T20:35:48.413Z,0.00
2019-05-18T20:38:49.021Z,0.00
2019-05-18T20:41:48.302Z,0.00
2019-05-18T20:44:48.284Z,0.00
2019-05-18T20:47:48.243Z,0.00
2019-05-18T20:50:48.206Z,0.00
2019-05-18T20:53:48.188Z,0.00
2019-05-18T20:56:48.144Z,0.00
2019-05-18T20:59:48.116Z,0.00
2019-05-18T21:02:48.077Z,0.00
2019-05-18T21:05:48.063Z,0.00
2019-05-18T21:08:48.036Z,0.00
2019-05-18T21:11:47.982Z,0.00
2019-05-18T21:14:47.979Z,0.00
2019-05-18T21:17:47.919Z,0.00
2019-05-18T21:20:47.889Z,0.00
2019-05-18T21:23:47.853Z,0.00
2019-05-18T21:26:47.826Z,0.00
2019-05-18T21:29:47.779Z,0.00
2019-05-18T21:32:47.767Z,0.00
2019-05-18T21:35:48.408Z,0.00
2019-05-18T21:38:47.702Z,0.00
2019-05-18T21:41:47.675Z,0.00
2019-05-18T21:44:47.620Z,0.00
2019-05-18T21:47:47.597Z,0.00
2019-05-18T21:50:47.589Z,0.00
2019-05-18T21:53:47.531Z,0.00
2019-05-18T21:56:47.506Z,0.00
2019-05-18T21:59:47.470Z,0.00
2019-05-18T22:02:47.435Z,0.00
2019-05-18T22:05:47.407Z,0.00
2019-05-18T22:08:47.376Z,0.00
2019-05-18T22:11:47.347Z,0.00
2019-05-18T22:14:47.337Z,0.00
2019-05-18T22:17:47.266Z,0.00
2019-05-18T22:20:47.247Z,0.00
2019-05-18T22:23:47.203Z,0.00
2019-05-18T22:26:47.178Z,0.00
2019-05-18T22:29:47.143Z,0.00
2019-05-18T22:32:47.117Z,0.00
2019-05-18T22:35:47.071Z,0.00
2019-05-18T22:38:47.051Z,0.00
2019-05-18T22:41:47.028Z,0.00
2019-05-18T22:44:46.992Z,0.00
2019-05-18T22:47:46.940Z,0.00
2019-05-18T22:50:46.923Z,0.00
2019-05-18T22:53:46.877Z,0.00
2019-05-18T22:56:46.866Z,0.00
2019-05-18T22:59:46.837Z,0.00
2019-05-18T23:02:46.801Z,0.00
2019-05-18T23:05:46.760Z,0.00
2019-05-18T23:08:46.713Z,0.00
2019-05-18T23:11:46.718Z,0.00
2019-05-18T23:14:46.673Z,0.00
2019-05-18T23:17:46.619Z,0.00
2019-05-18T23:20:46.598Z,0.00
2019-05-18T23:23:46.576Z,0.00
2019-05-18T23:26:46.524Z,0.00
2019-05-18T23:29:46.512Z,0.00
2019-05-18T23:32:46.486Z,0.00
2019-05-18T23:35:46.459Z,0.00
2019-05-18T23:38:46.388Z,0.00
2019-05-18T23:41:46.396Z,0.00
2019-05-18T23:44:46.323Z,0.00
2019-05-18T23:47:46.312Z,0.00
2019-05-18T23:50:46.259Z,0.00
2019-05-18T23:53:46.258Z,0.00
2019-05-18T23:56:46.222Z,0.00
2019-05-18T23:59:46.165Z,0.00
